Harbor Point, Michigan
Current Conditions -  °F | °C
As of 10:35 PM on Saturday 22 Nov 2014 (Local Time) from KMGN Reporting Station
Haze Haze  
Wind Chill: 35°   Ceiling: 200
Heat Index: 38°   Visibility: 1mi
Dew Point: 38°   Wind: 5mph
Humidity: 99%   Direction: 210°SSW
Pressure: 29.79"   Gusts: NA
Location:  45.5213°N, 84.9993°W
Report Text: KMGN 230335Z AUTO 21004KT 1SM BR OVC002 03/03 A2979 RMK AO2 T00360035
Loading
Personal Weather Stations






























Interactive Weather Map New forecast layout! Learn more

10-Day Weather Forecast

Advertisements
Track Severe Weather on mobile